Lake Worth, FL (33460)

6:28 PM EST on February 09, 2016 (GMT -0500)
Lake Clarke Shores - Caribbean Rd. East | | Change Station
CLOSE
Current Station
Personal Weather Station
Location: Lake Clarke Shores, FL
Elevation: 16 ft
Nearby Weather Stations
Active Advisory: Coastal Hazard Statement

Elev 16 ft 26.63 °N, 80.07 °W | Updated 15 seconds ago

Mostly Cloudy
Mostly Cloudy
62.1 °F
Feels Like 62.1 °F
N
4.0
Wind Variable Wind from WSW
Gusts 5.6 mph

Today
High -- | Low -- °F
--% Chance of Precip.
Yesterday
High -- | Low -- °F
Precip. -- in
Pressure 30.03 in
Visibility 10.0 miles
Clouds Scattered Clouds 4800 ft
Scattered Clouds 6000 ft
Mostly Cloudy 22000 ft
Dew Point 44 °F
Humidity 52%
Rainfall 0.00 in
Snow Depth Not available.
7:00 AM 6:08 PM
New Moon, 3% visible
METAR KPBI 092253Z 27013KT 10SM SCT048 SCT060 BKN220 17/07 A3003 RMK AO2 SLP169 T01670072
Pressure 30.03 in
Visibility 10.0 miles
Clouds Scattered Clouds 4800 ft
Scattered Clouds 6000 ft
Mostly Cloudy 22000 ft
Dew Point 44 °F
Humidity 52%
Rainfall 0.00 in
Snow Depth Not available.
7:00 AM 6:08 PM
New Moon, 3% visible
METAR KPBI 092253Z 27013KT 10SM SCT048 SCT060 BKN220 17/07 A3003 RMK AO2 SLP169 T01670072

10-Day Weather Forecast

Almanac

Astronomy

Feb. 09, 2016 Rise Set
Actual Time
Civil Twilight
Nautical Twilight
Astronomical Twilight
Moon
Length of Visible Light
Length of Day
Tomorrow will be .
, % of the Moon is Illuminated

Today's Extremes

State Highs State Lows

Community

WunderPhotos

Upload Photos

1,891,744 photos uploaded!

WunderBlog® & News

Nearby

Air Quality

  Air Quality AQ Index Pollutant
Not available.

Snow Depth

Station Depth Elevation

Earthquake Activity

City Distance Mag. Time & Date
Minimum magnitude displayed is 2.5.

Coastal Water Temperatures

Place Temperature

Stations

Nearby Weather Stations

Station Location Temp. Windchill Dew Point Humidity Wind Precip. Elev Updated Type
                   

Watches & Warnings

Coastal Hazard Statement
Issued: 5:34 PM EST Feb. 9, 2016 – National Weather Service

... High rip current risk remains in effect until 7 PM EST this
evening...

* timing... through this evening.

* Impacts... strong rip currents creating extremely dangerous
conditions for swimmers.

Precautionary/preparedness actions...

There is a high risk of rip currents.

Rip currents are powerful channels of water flowing quickly away
from shore... which occur most often at low spots or breaks in The
Sandbar and in the vicinity of structures such as groins...
jetties and piers. Heed the advice of lifeguards... beach patrol
flags and signs.

If you become caught in a rip current... Yell for help. Remain
calm... do not exhaust yourself and stay afloat while waiting for
help. If you have to swim out of a rip current... swim parallel to
shore and back toward the beach when possible. Do not attempt to
swim directly against a rip current as you will tire quickly.